createdAt,value
2023-01-03T00:00:49.193Z,23
2023-01-03T00:05:57.522Z,23.8
2023-01-03T00:11:05.297Z,23.6
2023-01-03T00:15:58.803Z,22.8
2023-01-03T00:21:05.338Z,22.3
2023-01-03T00:26:28.015Z,21.9
2023-01-03T00:31:35.138Z,21.8
2023-01-03T00:37:01.736Z,21.6
2023-01-03T00:42:24.906Z,22.4
2023-01-03T00:47:50.036Z,23.3
2023-01-03T00:53:11.574Z,23.1
2023-01-03T00:58:34.380Z,21.4
2023-01-03T01:04:02.104Z,22.8
2023-01-03T01:09:24.602Z,23.7
2023-01-03T01:14:47.927Z,23.4
2023-01-03T01:20:10.975Z,22.6
2023-01-03T01:25:23.702Z,21.9
2023-01-03T01:30:46.693Z,21.6
2023-01-03T01:36:09.739Z,21.6
2023-01-03T01:41:32.284Z,21.4
2023-01-03T01:47:01.929Z,22.9
2023-01-03T01:52:24.459Z,23.6
2023-01-03T01:57:46.771Z,23.6
2023-01-03T02:02:55.822Z,22.6
2023-01-03T02:08:03.628Z,22.6
2023-01-03T02:13:24.865Z,23.1
2023-01-03T02:18:33.025Z,23.4
2023-01-03T02:23:29.336Z,22.9
2023-01-03T02:28:51.705Z,22.4
2023-01-03T02:34:14.866Z,21.9
2023-01-03T02:39:23.908Z,21.7
2023-01-03T02:44:46.721Z,21.4
2023-01-03T02:50:10.171Z,21.7
2023-01-03T02:55:32.951Z,22.8
2023-01-03T03:00:54.855Z,23.1
2023-01-03T03:06:04.008Z,23.3
2023-01-03T03:11:27.337Z,22.8
2023-01-03T03:16:49.801Z,22.2
2023-01-03T03:21:47.752Z,21.8
2023-01-03T03:27:09.942Z,21.6
2023-01-03T03:31:46.125Z,21.3
2023-01-03T03:37:08.621Z,21.6
2023-01-03T03:42:31.504Z,22.5
2023-01-03T03:47:45.248Z,21.3
2023-01-03T03:53:06.998Z,21.3
2023-01-03T03:58:29.186Z,22.8
2023-01-03T04:03:52.618Z,23.3
2023-01-03T04:09:15.473Z,23.1
2023-01-03T04:14:38.568Z,22.4
2023-01-03T04:19:46.148Z,21.9
2023-01-03T04:24:56.590Z,21.5
2023-01-03T04:30:21.971Z,21.3
2023-01-03T04:35:44.646Z,21.1
2023-01-03T04:41:07.359Z,22.3
2023-01-03T04:46:30.669Z,22.9
2023-01-03T04:51:58.267Z,23.1
2023-01-03T04:57:20.279Z,22.6
2023-01-03T05:02:44.887Z,22.1
2023-01-03T05:08:13.501Z,21.8
2023-01-03T05:13:20.689Z,22.4
2023-01-03T05:18:46.443Z,22.8
2023-01-03T05:23:59.085Z,21.7
2023-01-03T05:29:24.846Z,21.2
2023-01-03T05:34:48.518Z,20.9
2023-01-03T05:39:55.805Z,20.7
2023-01-03T05:45:03.082Z,20.5
2023-01-03T05:50:10.945Z,20.9
2023-01-03T05:55:17.309Z,21.7
2023-01-03T06:00:24.423Z,21.8
2023-01-03T06:05:33.185Z,20.9
2023-01-03T06:10:40.824Z,20.4
2023-01-03T06:16:04.016Z,21.6
2023-01-03T06:21:16.010Z,22.1
2023-01-03T06:25:54.721Z,21.9
2023-01-03T06:31:01.952Z,21.6
2023-01-03T06:43:17.104Z,20.8
2023-01-03T06:48:09.694Z,20.6
2023-01-03T06:53:16.007Z,20.5
2023-01-03T06:58:33.644Z,21.5
2023-01-03T07:03:11.936Z,22
2023-01-03T07:08:04.063Z,22.3
2023-01-03T07:12:59.281Z,21.8
2023-01-03T07:17:50.823Z,21.5
2023-01-03T07:22:42.960Z,21.1
2023-01-03T07:27:49.869Z,20.8
2023-01-03T07:33:00.293Z,20.6
2023-01-03T07:37:52.579Z,20.4
2023-01-03T07:42:44.035Z,21.3
2023-01-03T07:47:35.876Z,22
2023-01-03T07:52:43.062Z,22.3
2023-01-03T07:57:53.327Z,22.3
2023-01-03T08:03:01.909Z,21.6
2023-01-03T08:08:25.299Z,21.5
2023-01-03T08:13:55.461Z,21.5
2023-01-03T08:19:02.585Z,20.8
2023-01-03T08:24:30.344Z,20.6
2023-01-03T08:29:44.759Z,21.3
2023-01-03T08:35:01.027Z,22.2
2023-01-03T08:40:23.196Z,22.2
2023-01-03T08:45:17.584Z,20.4
2023-01-03T08:50:24.727Z,21.5
2023-01-03T08:55:38.738Z,22.5
2023-01-03T09:01:01.371Z,22.9
2023-01-03T09:06:26.985Z,22.2
2023-01-03T09:11:54.904Z,21.8
2023-01-03T09:17:06.762Z,22.6
2023-01-03T09:22:29.566Z,22.9
2023-01-03T09:27:59.510Z,22.5
2023-01-03T09:33:22.612Z,21.9
2023-01-03T09:38:46.651Z,21.5
2023-01-03T09:43:59.562Z,21.3
2023-01-03T09:49:07.129Z,21.1
2023-01-03T09:55:44.788Z,22.4
2023-01-03T10:01:10.452Z,23.1
2023-01-03T10:06:38.173Z,22.3
2023-01-03T10:12:07.098Z,21.6
2023-01-03T10:17:05.178Z,22.1
2023-01-03T10:22:29.950Z,22.7
2023-01-03T10:27:41.167Z,22
2023-01-03T10:33:13.087Z,21.4
2023-01-03T10:38:43.816Z,21
2023-01-03T10:44:08.445Z,20.9
2023-01-03T10:50:17.227Z,20.8
2023-01-03T10:55:41.844Z,21.7
2023-01-03T11:01:06.463Z,22.9
2023-01-03T11:06:37.161Z,22.4
2023-01-03T11:12:04.362Z,21.8
2023-01-03T11:17:34.956Z,21.7
2023-01-03T11:22:57.664Z,23.1
2023-01-03T11:28:07.808Z,22.6
2023-01-03T11:33:33.374Z,21.8
2023-01-03T11:39:24.816Z,21.5
2023-01-03T11:44:49.341Z,22.5
2023-01-03T11:50:19.878Z,22.6
2023-01-03T11:55:46.381Z,21.7
2023-01-03T12:00:54.047Z,21.5
2023-01-03T12:06:19.230Z,22.1
2023-01-03T12:12:28.077Z,22.6
2023-01-03T12:17:42.989Z,21.8
2023-01-03T12:23:10.036Z,21.4
2023-01-03T12:28:32.554Z,21.9
2023-01-03T12:34:00.738Z,23.1
2023-01-03T12:39:27.580Z,22.1
2023-01-03T12:44:38.596Z,21.6
2023-01-03T12:49:55.538Z,21.6
2023-01-03T12:55:21.332Z,22.8
2023-01-03T13:00:52.012Z,22.4
2023-01-03T13:06:04.717Z,21.8
2023-01-03T13:11:27.204Z,21.5
2023-01-03T13:16:55.589Z,22.3
2023-01-03T13:22:17.860Z,22.9
2023-01-03T13:27:42.357Z,22.1
2023-01-03T13:32:56.592Z,21.6
2023-01-03T13:38:23.994Z,21.7
2023-01-03T13:44:29.573Z,23.1
2023-01-03T13:49:54.061Z,22.4
2023-01-03T13:55:17.454Z,21.8
2023-01-03T14:00:45.051Z,21.5
2023-01-03T14:06:13.873Z,22.4
2023-01-03T14:11:39.291Z,22.8
2023-01-03T14:16:52.317Z,21.9
2023-01-03T14:22:45.479Z,21.6
2023-01-03T14:28:56.600Z,21.7
2023-01-03T14:34:25.633Z,23.1
2023-01-03T14:39:48.026Z,22.3
2023-01-03T14:45:17.277Z,21.7
2023-01-03T14:50:43.626Z,21.3
2023-01-03T14:56:11.425Z,22.5
2023-01-03T15:01:40.661Z,22.8
2023-01-03T15:07:11.211Z,22
2023-01-03T15:12:35.644Z,21.6
2023-01-03T15:17:58.779Z,22
2023-01-03T15:23:26.968Z,23.1
2023-01-03T15:28:57.161Z,22.4
2023-01-03T15:34:26.906Z,21.9
2023-01-03T15:39:55.664Z,21.5
2023-01-03T15:46:02.264Z,22.6
2023-01-03T15:51:33.714Z,22.8
2023-01-03T15:56:47.430Z,22.1
2023-01-03T16:01:57.745Z,21.7
2023-01-03T16:07:22.024Z,21.9
2023-01-03T16:12:45.130Z,22.8
2023-01-03T16:18:15.041Z,22.3
2023-01-03T16:24:23.412Z,21.6
2023-01-03T16:29:52.181Z,21.5
2023-01-03T16:35:20.891Z,22.6
2023-01-03T16:40:48.213Z,22.5
2023-01-03T16:46:02.797Z,21.9
2023-01-03T16:51:25.945Z,21.6
2023-01-03T16:56:54.746Z,22.2
2023-01-03T17:02:25.597Z,23.1
2023-01-03T17:07:45.584Z,22.3
2023-01-03T17:13:12.675Z,21.4
2023-01-03T17:18:37.643Z,21.4
2023-01-03T17:24:37.471Z,22.4
2023-01-03T17:30:02.858Z,22.1
2023-01-03T17:35:30.841Z,21.6
2023-01-03T17:41:20.867Z,21.3
2023-01-03T17:46:44.407Z,22.5
2023-01-03T17:52:07.552Z,22.3
2023-01-03T17:56:43.830Z,21.8
2023-01-03T18:01:44.796Z,21.6
2023-01-03T18:07:43.824Z,22
2023-01-03T18:13:13.470Z,22.3
2023-01-03T18:18:36.632Z,21.9
2023-01-03T18:23:59.431Z,21.7
2023-01-03T18:29:07.059Z,22
2023-01-03T18:34:30.389Z,22.4
2023-01-03T18:40:01.524Z,22.1
2023-01-03T18:45:28.911Z,21.6
2023-01-03T18:50:57.750Z,21.6
2023-01-03T18:56:21.308Z,22.4
2023-01-03T19:01:48.944Z,22.3
2023-01-03T19:06:48.043Z,21.8
2023-01-03T19:12:11.301Z,21.4
2023-01-03T19:17:34.544Z,22.3
2023-01-03T19:22:57.692Z,22.3
2023-01-03T19:28:06.335Z,21.8
2023-01-03T19:33:14.352Z,21.6
2023-01-03T19:38:21.054Z,21.9
2023-01-03T19:43:36.290Z,22.4
2023-01-03T19:48:59.499Z,21.9
2023-01-03T19:54:11.039Z,21.6
2023-01-03T19:59:03.449Z,21.8
2023-01-03T20:05:11.581Z,22.6
2023-01-03T20:10:40.964Z,22.1
2023-01-03T20:15:39.673Z,21.6
2023-01-03T20:20:47.204Z,21.6
2023-01-03T20:26:28.097Z,22.4
2023-01-03T20:31:59.260Z,22.1
2023-01-03T20:37:29.907Z,21.8
2023-01-03T20:42:39.155Z,21.5
2023-01-03T20:48:02.401Z,22.3
2023-01-03T20:53:32.026Z,22.3
2023-01-03T20:58:45.613Z,21.8
2023-01-03T21:04:11.836Z,21.4
2023-01-03T21:09:41.373Z,22.1
2023-01-03T21:14:51.493Z,22.5
2023-01-03T21:20:20.225Z,21.9
2023-01-03T21:25:15.522Z,21.6
2023-01-03T21:30:38.642Z,21.7
2023-01-03T21:35:52.687Z,22.6
2023-01-03T21:40:44.110Z,22.2
2023-01-03T21:45:52.347Z,21.8
2023-01-03T21:51:18.962Z,21.6
2023-01-03T21:56:47.463Z,22.5
2023-01-03T22:02:14.673Z,22.4
2023-01-03T22:07:07.419Z,22.1
2023-01-03T22:12:32.546Z,22.1
2023-01-03T22:17:55.601Z,23.2
2023-01-03T22:23:24.388Z,23.9
2023-01-03T22:28:32.276Z,23.2
2023-01-03T22:33:39.796Z,22.8
2023-01-03T22:39:02.715Z,22.7
2023-01-03T22:44:16.025Z,24.3
2023-01-03T22:49:38.584Z,23.9
2023-01-03T22:55:00.947Z,22.8
2023-01-03T23:00:23.827Z,22.2
2023-01-03T23:05:34.957Z,23.4
2023-01-03T23:10:57.327Z,24.2
2023-01-03T23:15:52.599Z,23.4
2023-01-03T23:21:15.926Z,22.9
2023-01-03T23:26:26.301Z,23.1
2023-01-03T23:31:49.323Z,24.3
2023-01-03T23:36:56.889Z,23.9
2023-01-03T23:42:04.147Z,23.1
2023-01-03T23:47:30.257Z,22.6
2023-01-03T23:52:37.491Z,24.1
2023-01-03T23:58:05.840Z,24.1
